Terminal Aerodrome Forecast
Issued by NWS

Home | Current Version | Previous Version | Graphics & Text | Print | Product List | Glossary On
Versions: 1 2 3 4 5 6 7 8 9 10 11 12 13 14 15 16 17 18 19
000
FTUS43 KBIS 240520
TAFDIK
TAF
KDIK 240520Z 2406/2506 12004KT P6SM BKN110
     FM241700 05010KT P6SM VCSH SCT010 OVC030
     FM242000 09010KT P6SM -SHRA SCT015 OVC025=

USA.gov is the U.S. government's official web portal to all federal, state and local government web resources and services.